Météo de l'aérodrome de Pontarlier

Samedi 19 Août 2017 à 12:53 UTC

Ces relevés météorologiques ne sont donnés qu'à titre indicatif.
Ils ne doivent en aucun cas servir à la décision d'effectuer un vol au départ ou à destination de Pontarlier.
LFSP 191247Z AUTO 29008KT 20/10 Q1019

Vent actuel: 290/08

020

Répartition du vent (dernières 24h)

 

Vitesse du vent (dernières 24h)

Température / Point de rosée / Température ressentie (dernières 24h)

Pression atmosphérique (dernières 24h)

Précipitations